Broadway, Washington
Current Conditions -  °F | °C
As of 5:26 PM on Friday 28 Nov 2014 (Local Time) from KBFI Reporting Station
Light Rain Light Rain  
Wind Chill: 41°   Ceiling: 2600
Heat Index: 41°   Visibility: 10mi
Dew Point: 36°   Wind: 0mph
Humidity: 81%   Direction: NA
Pressure: 29.5"   Gusts: NA
Location:  47.6341°N, 122.322°W
Report Text: KBFI 290126Z 00000KT 10SM -RA BKN026 OVC040 05/02 A2950 RMK AO2 P0001
Loading
Personal Weather Stations






























Interactive Weather Map New forecast layout! Learn more

10-Day Weather Forecast

Advertisements
Track Severe Weather on mobile